sensor_id;sensor_type;location;lat;lon;timestamp;P1;durP1;ratioP1;P2;durP2;ratioP2
28756;SDS011;44294;48.282;14.282;2023-05-07T00:02:10;4.20;;;3.80;;
28756;SDS011;44294;48.282;14.282;2023-05-07T00:04:58;4.97;;;3.40;;
28756;SDS011;44294;48.282;14.282;2023-05-07T00:07:46;4.00;;;3.60;;
28756;SDS011;44294;48.282;14.282;2023-05-07T00:10:33;3.57;;;3.27;;
28756;SDS011;44294;48.282;14.282;2023-05-07T00:13:21;4.63;;;3.20;;
28756;SDS011;44294;48.282;14.282;2023-05-07T00:16:08;5.37;;;3.50;;
28756;SDS011;44294;48.282;14.282;2023-05-07T00:18:55;4.20;;;3.40;;
28756;SDS011;44294;48.282;14.282;2023-05-07T00:21:43;6.33;;;3.40;;
28756;SDS011;44294;48.282;14.282;2023-05-07T00:24:30;3.77;;;3.37;;
28756;SDS011;44294;48.282;14.282;2023-05-07T00:27:17;3.50;;;3.20;;
28756;SDS011;44294;48.282;14.282;2023-05-07T00:30:05;4.00;;;3.50;;
28756;SDS011;44294;48.282;14.282;2023-05-07T00:32:53;3.43;;;3.13;;
28756;SDS011;44294;48.282;14.282;2023-05-07T00:35:41;4.70;;;3.40;;
28756;SDS011;44294;48.282;14.282;2023-05-07T00:38:29;3.50;;;3.20;;
28756;SDS011;44294;48.282;14.282;2023-05-07T00:41:16;3.60;;;3.30;;
28756;SDS011;44294;48.282;14.282;2023-05-07T00:44:03;3.60;;;3.30;;
28756;SDS011;44294;48.282;14.282;2023-05-07T00:46:51;3.40;;;3.10;;
28756;SDS011;44294;48.282;14.282;2023-05-07T00:49:39;3.40;;;3.10;;
28756;SDS011;44294;48.282;14.282;2023-05-07T00:52:27;3.60;;;3.30;;
28756;SDS011;44294;48.282;14.282;2023-05-07T00:55:14;3.50;;;3.20;;
28756;SDS011;44294;48.282;14.282;2023-05-07T00:58:02;4.97;;;3.30;;
28756;SDS011;44294;48.282;14.282;2023-05-07T01:00:49;3.30;;;3.00;;
28756;SDS011;44294;48.282;14.282;2023-05-07T01:03:37;4.17;;;3.03;;
28756;SDS011;44294;48.282;14.282;2023-05-07T01:06:24;3.30;;;3.00;;
28756;SDS011;44294;48.282;14.282;2023-05-07T01:09:14;3.37;;;3.07;;
28756;SDS011;44294;48.282;14.282;2023-05-07T01:12:01;5.97;;;2.80;;
28756;SDS011;44294;48.282;14.282;2023-05-07T01:14:48;3.00;;;2.80;;
28756;SDS011;44294;48.282;14.282;2023-05-07T01:17:37;3.00;;;2.70;;
28756;SDS011;44294;48.282;14.282;2023-05-07T01:20:24;4.20;;;2.70;;
28756;SDS011;44294;48.282;14.282;2023-05-07T01:23:12;3.10;;;2.80;;
28756;SDS011;44294;48.282;14.282;2023-05-07T01:25:59;3.00;;;2.80;;
28756;SDS011;44294;48.282;14.282;2023-05-07T01:28:47;3.13;;;2.87;;
28756;SDS011;44294;48.282;14.282;2023-05-07T01:31:34;3.50;;;2.93;;
28756;SDS011;44294;48.282;14.282;2023-05-07T01:34:21;3.43;;;2.80;;
28756;SDS011;44294;48.282;14.282;2023-05-07T01:37:09;4.37;;;3.00;;
28756;SDS011;44294;48.282;14.282;2023-05-07T01:39:57;4.17;;;2.90;;
28756;SDS011;44294;48.282;14.282;2023-05-07T01:42:44;3.43;;;2.80;;
28756;SDS011;44294;48.282;14.282;2023-05-07T01:45:32;3.97;;;2.80;;
28756;SDS011;44294;48.282;14.282;2023-05-07T01:48:21;3.57;;;2.60;;
28756;SDS011;44294;48.282;14.282;2023-05-07T01:51:08;3.37;;;2.83;;
28756;SDS011;44294;48.282;14.282;2023-05-07T01:53:56;2.90;;;2.70;;
28756;SDS011;44294;48.282;14.282;2023-05-07T01:56:44;7.37;;;2.80;;
28756;SDS011;44294;48.282;14.282;2023-05-07T01:59:33;3.20;;;2.90;;
28756;SDS011;44294;48.282;14.282;2023-05-07T02:02:20;3.00;;;2.70;;
28756;SDS011;44294;48.282;14.282;2023-05-07T02:05:08;9.03;;;3.03;;
28756;SDS011;44294;48.282;14.282;2023-05-07T02:07:56;4.90;;;3.03;;
28756;SDS011;44294;48.282;14.282;2023-05-07T02:10:43;4.83;;;3.10;;
28756;SDS011;44294;48.282;14.282;2023-05-07T02:13:31;3.30;;;3.00;;
28756;SDS011;44294;48.282;14.282;2023-05-07T02:16:19;5.10;;;3.50;;
28756;SDS011;44294;48.282;14.282;2023-05-07T02:19:07;3.63;;;3.20;;
28756;SDS011;44294;48.282;14.282;2023-05-07T02:21:54;4.23;;;3.23;;
28756;SDS011;44294;48.282;14.282;2023-05-07T02:24:42;3.73;;;3.30;;
28756;SDS011;44294;48.282;14.282;2023-05-07T02:27:30;3.70;;;3.10;;
28756;SDS011;44294;48.282;14.282;2023-05-07T02:30:18;4.23;;;3.40;;
28756;SDS011;44294;48.282;14.282;2023-05-07T02:33:06;3.87;;;3.47;;
28756;SDS011;44294;48.282;14.282;2023-05-07T02:35:54;3.90;;;3.30;;
28756;SDS011;44294;48.282;14.282;2023-05-07T02:38:42;3.70;;;3.30;;
28756;SDS011;44294;48.282;14.282;2023-05-07T02:41:29;4.53;;;3.53;;
28756;SDS011;44294;48.282;14.282;2023-05-07T02:44:17;4.00;;;3.33;;
28756;SDS011;44294;48.282;14.282;2023-05-07T02:47:04;3.57;;;3.27;;
28756;SDS011;44294;48.282;14.282;2023-05-07T02:49:53;4.13;;;3.40;;
28756;SDS011;44294;48.282;14.282;2023-05-07T02:52:41;3.50;;;3.20;;
28756;SDS011;44294;48.282;14.282;2023-05-07T02:55:28;3.80;;;3.40;;
28756;SDS011;44294;48.282;14.282;2023-05-07T02:58:15;5.87;;;3.27;;
28756;SDS011;44294;48.282;14.282;2023-05-07T03:01:03;3.53;;;3.20;;
28756;SDS011;44294;48.282;14.282;2023-05-07T03:03:50;4.40;;;3.50;;
28756;SDS011;44294;48.282;14.282;2023-05-07T03:06:37;3.83;;;3.53;;
28756;SDS011;44294;48.282;14.282;2023-05-07T03:09:25;4.93;;;3.80;;
28756;SDS011;44294;48.282;14.282;2023-05-07T03:12:12;6.40;;;3.73;;
28756;SDS011;44294;48.282;14.282;2023-05-07T03:14:59;4.83;;;3.70;;
28756;SDS011;44294;48.282;14.282;2023-05-07T03:17:47;4.83;;;4.03;;
28756;SDS011;44294;48.282;14.282;2023-05-07T03:20:34;5.63;;;3.77;;
28756;SDS011;44294;48.282;14.282;2023-05-07T03:23:22;5.00;;;4.20;;
28756;SDS011;44294;48.282;14.282;2023-05-07T03:26:10;4.87;;;4.30;;
28756;SDS011;44294;48.282;14.282;2023-05-07T03:28:57;5.67;;;4.10;;
28756;SDS011;44294;48.282;14.282;2023-05-07T03:31:44;6.93;;;4.00;;
28756;SDS011;44294;48.282;14.282;2023-05-07T03:34:32;5.10;;;4.10;;
28756;SDS011;44294;48.282;14.282;2023-05-07T03:37:19;4.40;;;4.00;;
28756;SDS011;44294;48.282;14.282;2023-05-07T03:40:08;4.10;;;3.70;;
28756;SDS011;44294;48.282;14.282;2023-05-07T03:42:56;6.70;;;4.00;;
28756;SDS011;44294;48.282;14.282;2023-05-07T03:45:43;5.97;;;4.10;;
28756;SDS011;44294;48.282;14.282;2023-05-07T03:48:31;5.00;;;4.10;;
28756;SDS011;44294;48.282;14.282;2023-05-07T03:51:18;5.70;;;4.30;;
28756;SDS011;44294;48.282;14.282;2023-05-07T03:54:05;4.20;;;3.80;;
28756;SDS011;44294;48.282;14.282;2023-05-07T03:56:53;5.47;;;3.87;;
28756;SDS011;44294;48.282;14.282;2023-05-07T03:59:40;4.90;;;4.00;;
28756;SDS011;44294;48.282;14.282;2023-05-07T04:02:27;4.90;;;3.90;;
28756;SDS011;44294;48.282;14.282;2023-05-07T04:05:15;5.73;;;4.00;;
28756;SDS011;44294;48.282;14.282;2023-05-07T04:08:03;5.27;;;4.27;;
28756;SDS011;44294;48.282;14.282;2023-05-07T04:10:56;5.13;;;4.17;;
28756;SDS011;44294;48.282;14.282;2023-05-07T04:13:40;4.90;;;4.33;;
28756;SDS011;44294;48.282;14.282;2023-05-07T04:16:28;5.40;;;4.57;;
28756;SDS011;44294;48.282;14.282;2023-05-07T04:19:15;4.70;;;4.13;;
28756;SDS011;44294;48.282;14.282;2023-05-07T04:22:02;5.33;;;4.30;;
28756;SDS011;44294;48.282;14.282;2023-05-07T04:24:49;5.60;;;4.40;;
28756;SDS011;44294;48.282;14.282;2023-05-07T04:27:37;4.90;;;4.20;;
28756;SDS011;44294;48.282;14.282;2023-05-07T04:30:24;4.53;;;4.00;;
28756;SDS011;44294;48.282;14.282;2023-05-07T04:33:13;7.10;;;4.70;;
28756;SDS011;44294;48.282;14.282;2023-05-07T04:36:02;5.03;;;4.37;;
28756;SDS011;44294;48.282;14.282;2023-05-07T04:38:50;6.50;;;5.20;;
28756;SDS011;44294;48.282;14.282;2023-05-07T04:41:37;6.37;;;4.90;;
28756;SDS011;44294;48.282;14.282;2023-05-07T04:44:25;5.20;;;4.57;;
28756;SDS011;44294;48.282;14.282;2023-05-07T04:47:12;6.83;;;4.80;;
28756;SDS011;44294;48.282;14.282;2023-05-07T04:49:59;6.43;;;5.00;;
28756;SDS011;44294;48.282;14.282;2023-05-07T04:52:47;7.83;;;5.33;;
28756;SDS011;44294;48.282;14.282;2023-05-07T04:55:34;6.53;;;4.80;;
28756;SDS011;44294;48.282;14.282;2023-05-07T04:58:21;7.10;;;4.97;;
28756;SDS011;44294;48.282;14.282;2023-05-07T05:01:08;6.20;;;4.87;;
28756;SDS011;44294;48.282;14.282;2023-05-07T05:03:56;6.50;;;5.07;;
28756;SDS011;44294;48.282;14.282;2023-05-07T05:06:43;6.77;;;5.00;;
28756;SDS011;44294;48.282;14.282;2023-05-07T05:09:31;6.03;;;5.00;;
28756;SDS011;44294;48.282;14.282;2023-05-07T05:12:18;7.17;;;5.17;;
28756;SDS011;44294;48.282;14.282;2023-05-07T05:15:06;7.23;;;5.50;;
28756;SDS011;44294;48.282;14.282;2023-05-07T05:17:53;6.33;;;5.07;;
28756;SDS011;44294;48.282;14.282;2023-05-07T05:20:41;6.70;;;5.47;;
28756;SDS011;44294;48.282;14.282;2023-05-07T05:23:28;7.47;;;5.73;;
28756;SDS011;44294;48.282;14.282;2023-05-07T05:26:15;8.93;;;7.23;;
28756;SDS011;44294;48.282;14.282;2023-05-07T05:29:03;8.93;;;7.47;;
28756;SDS011;44294;48.282;14.282;2023-05-07T05:31:50;9.23;;;7.67;;
28756;SDS011;44294;48.282;14.282;2023-05-07T05:34:37;9.93;;;8.07;;
28756;SDS011;44294;48.282;14.282;2023-05-07T05:37:24;14.10;;;9.93;;
28756;SDS011;44294;48.282;14.282;2023-05-07T05:40:12;12.40;;;9.73;;
28756;SDS011;44294;48.282;14.282;2023-05-07T05:42:59;12.17;;;8.60;;
28756;SDS011;44294;48.282;14.282;2023-05-07T05:45:47;9.93;;;7.63;;
28756;SDS011;44294;48.282;14.282;2023-05-07T05:48:34;9.13;;;6.97;;
28756;SDS011;44294;48.282;14.282;2023-05-07T05:51:21;10.13;;;7.73;;
28756;SDS011;44294;48.282;14.282;2023-05-07T05:54:09;10.60;;;8.00;;
28756;SDS011;44294;48.282;14.282;2023-05-07T05:56:56;11.80;;;8.77;;
28756;SDS011;44294;48.282;14.282;2023-05-07T05:59:44;10.67;;;7.37;;
28756;SDS011;44294;48.282;14.282;2023-05-07T06:02:32;11.17;;;7.47;;
28756;SDS011;44294;48.282;14.282;2023-05-07T06:05:20;11.40;;;6.77;;
28756;SDS011;44294;48.282;14.282;2023-05-07T06:08:07;13.60;;;8.00;;
28756;SDS011;44294;48.282;14.282;2023-05-07T06:10:55;16.57;;;11.47;;
28756;SDS011;44294;48.282;14.282;2023-05-07T06:13:42;13.97;;;9.30;;
28756;SDS011;44294;48.282;14.282;2023-05-07T06:16:30;13.50;;;8.00;;
28756;SDS011;44294;48.282;14.282;2023-05-07T06:19:17;12.07;;;8.20;;
28756;SDS011;44294;48.282;14.282;2023-05-07T06:22:06;16.93;;;10.60;;
28756;SDS011;44294;48.282;14.282;2023-05-07T06:24:54;18.90;;;10.80;;
28756;SDS011;44294;48.282;14.282;2023-05-07T06:27:41;16.43;;;10.90;;
28756;SDS011;44294;48.282;14.282;2023-05-07T06:30:28;16.93;;;11.40;;
28756;SDS011;44294;48.282;14.282;2023-05-07T06:33:16;18.27;;;11.43;;
28756;SDS011;44294;48.282;14.282;2023-05-07T06:36:03;17.43;;;10.70;;
28756;SDS011;44294;48.282;14.282;2023-05-07T06:38:51;19.23;;;11.20;;
28756;SDS011;44294;48.282;14.282;2023-05-07T06:41:38;18.00;;;11.30;;
28756;SDS011;44294;48.282;14.282;2023-05-07T06:44:25;26.30;;;17.73;;
28756;SDS011;44294;48.282;14.282;2023-05-07T06:47:13;18.90;;;12.57;;
28756;SDS011;44294;48.282;14.282;2023-05-07T06:50:00;15.33;;;10.87;;
28756;SDS011;44294;48.282;14.282;2023-05-07T06:52:47;11.67;;;8.30;;
28756;SDS011;44294;48.282;14.282;2023-05-07T06:55:35;7.93;;;5.53;;
28756;SDS011;44294;48.282;14.282;2023-05-07T06:58:24;8.00;;;5.50;;
28756;SDS011;44294;48.282;14.282;2023-05-07T07:01:11;9.67;;;5.70;;
28756;SDS011;44294;48.282;14.282;2023-05-07T07:03:58;7.10;;;5.40;;
28756;SDS011;44294;48.282;14.282;2023-05-07T07:06:46;7.17;;;6.07;;
28756;SDS011;44294;48.282;14.282;2023-05-07T07:09:33;13.23;;;7.90;;
28756;SDS011;44294;48.282;14.282;2023-05-07T07:12:21;9.17;;;7.30;;
28756;SDS011;44294;48.282;14.282;2023-05-07T07:15:10;12.57;;;8.30;;
28756;SDS011;44294;48.282;14.282;2023-05-07T07:17:57;7.27;;;5.77;;
28756;SDS011;44294;48.282;14.282;2023-05-07T07:20:45;10.17;;;7.10;;
28756;SDS011;44294;48.282;14.282;2023-05-07T07:23:32;10.70;;;7.77;;
28756;SDS011;44294;48.282;14.282;2023-05-07T07:26:19;14.73;;;10.13;;
28756;SDS011;44294;48.282;14.282;2023-05-07T07:29:07;15.10;;;10.70;;
28756;SDS011;44294;48.282;14.282;2023-05-07T07:31:54;13.13;;;8.37;;
28756;SDS011;44294;48.282;14.282;2023-05-07T07:34:41;11.50;;;8.27;;
28756;SDS011;44294;48.282;14.282;2023-05-07T07:37:28;10.80;;;7.80;;
28756;SDS011;44294;48.282;14.282;2023-05-07T07:40:16;15.03;;;9.67;;
28756;SDS011;44294;48.282;14.282;2023-05-07T07:43:03;13.50;;;9.47;;
28756;SDS011;44294;48.282;14.282;2023-05-07T07:45:51;16.37;;;10.70;;
28756;SDS011;44294;48.282;14.282;2023-05-07T07:48:38;17.00;;;11.30;;
28756;SDS011;44294;48.282;14.282;2023-05-07T07:51:25;18.27;;;11.40;;
28756;SDS011;44294;48.282;14.282;2023-05-07T07:54:13;17.73;;;11.37;;
28756;SDS011;44294;48.282;14.282;2023-05-07T07:57:00;14.57;;;9.63;;
28756;SDS011;44294;48.282;14.282;2023-05-07T07:59:47;17.33;;;11.20;;
28756;SDS011;44294;48.282;14.282;2023-05-07T08:02:35;19.07;;;11.53;;
28756;SDS011;44294;48.282;14.282;2023-05-07T08:05:22;16.00;;;10.63;;
28756;SDS011;44294;48.282;14.282;2023-05-07T08:08:10;12.57;;;8.70;;
28756;SDS011;44294;48.282;14.282;2023-05-07T08:10:57;12.83;;;8.47;;
28756;SDS011;44294;48.282;14.282;2023-05-07T08:13:45;11.97;;;7.30;;
28756;SDS011;44294;48.282;14.282;2023-05-07T08:16:32;11.90;;;8.53;;
28756;SDS011;44294;48.282;14.282;2023-05-07T08:19:20;10.13;;;7.73;;
28756;SDS011;44294;48.282;14.282;2023-05-07T08:22:08;11.47;;;8.00;;
28756;SDS011;44294;48.282;14.282;2023-05-07T08:24:55;11.37;;;7.43;;
28756;SDS011;44294;48.282;14.282;2023-05-07T08:27:43;11.73;;;7.70;;
28756;SDS011;44294;48.282;14.282;2023-05-07T08:30:31;14.00;;;7.77;;
28756;SDS011;44294;48.282;14.282;2023-05-07T08:33:18;6.37;;;5.30;;
28756;SDS011;44294;48.282;14.282;2023-05-07T08:36:06;11.03;;;6.97;;
28756;SDS011;44294;48.282;14.282;2023-05-07T08:38:53;9.37;;;7.10;;
28756;SDS011;44294;48.282;14.282;2023-05-07T08:41:41;9.43;;;7.10;;
28756;SDS011;44294;48.282;14.282;2023-05-07T08:44:32;11.83;;;6.83;;
28756;SDS011;44294;48.282;14.282;2023-05-07T08:47:18;8.17;;;5.87;;
28756;SDS011;44294;48.282;14.282;2023-05-07T08:50:06;7.90;;;6.20;;
28756;SDS011;44294;48.282;14.282;2023-05-07T08:52:54;9.03;;;6.23;;
28756;SDS011;44294;48.282;14.282;2023-05-07T08:55:42;7.77;;;5.90;;
28756;SDS011;44294;48.282;14.282;2023-05-07T08:58:30;9.97;;;7.27;;
28756;SDS011;44294;48.282;14.282;2023-05-07T09:01:17;11.40;;;6.33;;
28756;SDS011;44294;48.282;14.282;2023-05-07T09:04:04;7.60;;;5.90;;
28756;SDS011;44294;48.282;14.282;2023-05-07T09:06:53;7.80;;;6.20;;
28756;SDS011;44294;48.282;14.282;2023-05-07T09:09:40;7.60;;;5.80;;
28756;SDS011;44294;48.282;14.282;2023-05-07T09:12:27;10.20;;;6.30;;
28756;SDS011;44294;48.282;14.282;2023-05-07T09:15:15;10.33;;;6.07;;
28756;SDS011;44294;48.282;14.282;2023-05-07T09:18:02;10.67;;;5.60;;
28756;SDS011;44294;48.282;14.282;2023-05-07T09:20:49;8.80;;;6.27;;
28756;SDS011;44294;48.282;14.282;2023-05-07T09:23:37;8.73;;;5.80;;
28756;SDS011;44294;48.282;14.282;2023-05-07T09:26:25;8.73;;;6.30;;
28756;SDS011;44294;48.282;14.282;2023-05-07T09:29:15;9.07;;;5.70;;
28756;SDS011;44294;48.282;14.282;2023-05-07T09:32:06;8.80;;;6.60;;
28756;SDS011;44294;48.282;14.282;2023-05-07T09:34:54;12.67;;;6.93;;
28756;SDS011;44294;48.282;14.282;2023-05-07T09:37:41;14.27;;;6.30;;
28756;SDS011;44294;48.282;14.282;2023-05-07T09:40:29;8.53;;;6.47;;
28756;SDS011;44294;48.282;14.282;2023-05-07T09:43:17;8.33;;;7.10;;
28756;SDS011;44294;48.282;14.282;2023-05-07T09:46:09;11.07;;;7.67;;
28756;SDS011;44294;48.282;14.282;2023-05-07T09:48:56;7.60;;;6.50;;
28756;SDS011;44294;48.282;14.282;2023-05-07T09:51:49;8.60;;;7.23;;
28756;SDS011;44294;48.282;14.282;2023-05-07T09:54:37;8.70;;;7.57;;
28756;SDS011;44294;48.282;14.282;2023-05-07T09:57:24;7.87;;;6.33;;
28756;SDS011;44294;48.282;14.282;2023-05-07T10:00:12;11.47;;;6.43;;
28756;SDS011;44294;48.282;14.282;2023-05-07T10:03:01;11.37;;;7.50;;
28756;SDS011;44294;48.282;14.282;2023-05-07T10:05:49;10.53;;;7.07;;
28756;SDS011;44294;48.282;14.282;2023-05-07T10:08:37;10.20;;;7.83;;
28756;SDS011;44294;48.282;14.282;2023-05-07T10:11:25;10.37;;;7.40;;
28756;SDS011;44294;48.282;14.282;2023-05-07T10:14:13;9.80;;;7.50;;
28756;SDS011;44294;48.282;14.282;2023-05-07T10:17:00;9.10;;;6.87;;
28756;SDS011;44294;48.282;14.282;2023-05-07T10:19:49;10.07;;;7.60;;
28756;SDS011;44294;48.282;14.282;2023-05-07T10:22:41;10.30;;;6.70;;
28756;SDS011;44294;48.282;14.282;2023-05-07T10:25:30;13.43;;;7.50;;
28756;SDS011;44294;48.282;14.282;2023-05-07T10:28:17;11.80;;;6.90;;
28756;SDS011;44294;48.282;14.282;2023-05-07T10:31:18;8.23;;;6.90;;
28756;SDS011;44294;48.282;14.282;2023-05-07T10:34:07;7.97;;;6.40;;
28756;SDS011;44294;48.282;14.282;2023-05-07T10:36:52;11.40;;;6.70;;
28756;SDS011;44294;48.282;14.282;2023-05-07T10:39:41;8.17;;;6.43;;
28756;SDS011;44294;48.282;14.282;2023-05-07T10:42:28;8.33;;;6.40;;
28756;SDS011;44294;48.282;14.282;2023-05-07T10:45:16;8.23;;;6.00;;
28756;SDS011;44294;48.282;14.282;2023-05-07T10:56:59;8.90;;;7.00;;
28756;SDS011;44294;48.282;14.282;2023-05-07T10:59:48;8.40;;;6.23;;
28756;SDS011;44294;48.282;14.282;2023-05-07T11:05:40;8.07;;;6.30;;
28756;SDS011;44294;48.282;14.282;2023-05-07T11:08:52;9.97;;;6.50;;
28756;SDS011;44294;48.282;14.282;2023-05-07T11:11:17;9.40;;;6.30;;
28756;SDS011;44294;48.282;14.282;2023-05-07T11:14:05;8.23;;;5.60;;
28756;SDS011;44294;48.282;14.282;2023-05-07T11:16:54;7.03;;;5.63;;
28756;SDS011;44294;48.282;14.282;2023-05-07T11:19:54;6.10;;;5.50;;
28756;SDS011;44294;48.282;14.282;2023-05-07T11:22:42;6.97;;;5.50;;
28756;SDS011;44294;48.282;14.282;2023-05-07T11:25:29;6.10;;;5.50;;
28756;SDS011;44294;48.282;14.282;2023-05-07T11:28:16;6.53;;;5.80;;
28756;SDS011;44294;48.282;14.282;2023-05-07T11:31:04;7.17;;;5.50;;
28756;SDS011;44294;48.282;14.282;2023-05-07T11:33:52;5.67;;;4.93;;
28756;SDS011;44294;48.282;14.282;2023-05-07T11:36:41;5.90;;;5.30;;
28756;SDS011;44294;48.282;14.282;2023-05-07T11:39:30;6.63;;;5.17;;
28756;SDS011;44294;48.282;14.282;2023-05-07T11:42:31;6.90;;;5.87;;
28756;SDS011;44294;48.282;14.282;2023-05-07T11:45:22;7.70;;;5.30;;
28756;SDS011;44294;48.282;14.282;2023-05-07T11:48:06;10.83;;;6.40;;
28756;SDS011;44294;48.282;14.282;2023-05-07T11:50:54;7.33;;;5.93;;
28756;SDS011;44294;48.282;14.282;2023-05-07T11:53:42;6.73;;;6.03;;
28756;SDS011;44294;48.282;14.282;2023-05-07T11:56:29;5.90;;;5.30;;
28756;SDS011;44294;48.282;14.282;2023-05-07T11:59:18;6.33;;;5.57;;
28756;SDS011;44294;48.282;14.282;2023-05-07T12:02:06;7.47;;;5.50;;
28756;SDS011;44294;48.282;14.282;2023-05-07T12:04:53;11.07;;;5.80;;
28756;SDS011;44294;48.282;14.282;2023-05-07T12:07:41;10.37;;;6.30;;
28756;SDS011;44294;48.282;14.282;2023-05-07T12:10:28;8.47;;;5.63;;
28756;SDS011;44294;48.282;14.282;2023-05-07T12:13:23;6.00;;;5.40;;
28756;SDS011;44294;48.282;14.282;2023-05-07T12:16:11;7.70;;;5.53;;
28756;SDS011;44294;48.282;14.282;2023-05-07T12:18:58;6.60;;;5.10;;
28756;SDS011;44294;48.282;14.282;2023-05-07T12:21:46;9.33;;;6.30;;
28756;SDS011;44294;48.282;14.282;2023-05-07T12:27:38;9.30;;;5.40;;
28756;SDS011;44294;48.282;14.282;2023-05-07T12:30:26;7.73;;;5.30;;
28756;SDS011;44294;48.282;14.282;2023-05-07T12:33:16;5.87;;;5.27;;
28756;SDS011;44294;48.282;14.282;2023-05-07T12:36:05;6.23;;;5.20;;
28756;SDS011;44294;48.282;14.282;2023-05-07T12:38:55;7.17;;;5.50;;
28756;SDS011;44294;48.282;14.282;2023-05-07T12:41:54;7.03;;;5.67;;
28756;SDS011;44294;48.282;14.282;2023-05-07T12:44:44;6.30;;;5.70;;
28756;SDS011;44294;48.282;14.282;2023-05-07T12:47:31;7.93;;;5.73;;
28756;SDS011;44294;48.282;14.282;2023-05-07T12:50:19;7.47;;;5.37;;
28756;SDS011;44294;48.282;14.282;2023-05-07T12:53:10;6.00;;;5.40;;
28756;SDS011;44294;48.282;14.282;2023-05-07T12:55:59;11.07;;;6.17;;
28756;SDS011;44294;48.282;14.282;2023-05-07T12:58:48;6.30;;;5.40;;
28756;SDS011;44294;48.282;14.282;2023-05-07T13:01:36;5.27;;;4.77;;
28756;SDS011;44294;48.282;14.282;2023-05-07T13:04:24;7.17;;;5.17;;
28756;SDS011;44294;48.282;14.282;2023-05-07T13:07:12;5.20;;;4.70;;
28756;SDS011;44294;48.282;14.282;2023-05-07T13:09:59;6.17;;;5.00;;
28756;SDS011;44294;48.282;14.282;2023-05-07T13:12:46;5.40;;;4.90;;
28756;SDS011;44294;48.282;14.282;2023-05-07T13:15:34;6.03;;;4.83;;
28756;SDS011;44294;48.282;14.282;2023-05-07T13:18:21;6.40;;;4.90;;
28756;SDS011;44294;48.282;14.282;2023-05-07T13:21:09;6.57;;;4.90;;
28756;SDS011;44294;48.282;14.282;2023-05-07T13:23:57;5.83;;;4.90;;
28756;SDS011;44294;48.282;14.282;2023-05-07T13:26:44;6.23;;;4.83;;
28756;SDS011;44294;48.282;14.282;2023-05-07T13:29:31;5.50;;;4.57;;
28756;SDS011;44294;48.282;14.282;2023-05-07T13:32:18;6.57;;;4.70;;
28756;SDS011;44294;48.282;14.282;2023-05-07T13:35:06;6.77;;;4.60;;
28756;SDS011;44294;48.282;14.282;2023-05-07T13:37:54;6.57;;;4.70;;
28756;SDS011;44294;48.282;14.282;2023-05-07T13:40:41;6.17;;;4.87;;
28756;SDS011;44294;48.282;14.282;2023-05-07T13:43:29;6.70;;;5.10;;
28756;SDS011;44294;48.282;14.282;2023-05-07T13:46:16;6.90;;;4.90;;
28756;SDS011;44294;48.282;14.282;2023-05-07T13:49:03;6.23;;;4.70;;
28756;SDS011;44294;48.282;14.282;2023-05-07T13:51:50;5.97;;;4.83;;
28756;SDS011;44294;48.282;14.282;2023-05-07T13:54:38;6.10;;;4.77;;
28756;SDS011;44294;48.282;14.282;2023-05-07T13:57:25;5.67;;;4.90;;
28756;SDS011;44294;48.282;14.282;2023-05-07T14:00:13;6.43;;;4.70;;
28756;SDS011;44294;48.282;14.282;2023-05-07T14:03:01;5.43;;;4.90;;
28756;SDS011;44294;48.282;14.282;2023-05-07T14:05:49;6.77;;;4.60;;
28756;SDS011;44294;48.282;14.282;2023-05-07T14:08:36;4.60;;;4.20;;
28756;SDS011;44294;48.282;14.282;2023-05-07T14:11:23;5.20;;;4.53;;
28756;SDS011;44294;48.282;14.282;2023-05-07T14:14:10;6.73;;;4.93;;
28756;SDS011;44294;48.282;14.282;2023-05-07T14:16:58;6.00;;;4.60;;
28756;SDS011;44294;48.282;14.282;2023-05-07T14:19:45;7.13;;;5.40;;
28756;SDS011;44294;48.282;14.282;2023-05-07T14:22:32;7.53;;;5.53;;
28756;SDS011;44294;48.282;14.282;2023-05-07T14:25:20;12.63;;;5.00;;
28756;SDS011;44294;48.282;14.282;2023-05-07T14:28:07;4.93;;;4.43;;
28756;SDS011;44294;48.282;14.282;2023-05-07T14:30:54;5.93;;;4.70;;
28756;SDS011;44294;48.282;14.282;2023-05-07T14:33:42;6.70;;;5.00;;
28756;SDS011;44294;48.282;14.282;2023-05-07T14:36:29;7.80;;;5.57;;
28756;SDS011;44294;48.282;14.282;2023-05-07T14:39:18;7.27;;;5.43;;
28756;SDS011;44294;48.282;14.282;2023-05-07T14:42:05;7.97;;;6.00;;
28756;SDS011;44294;48.282;14.282;2023-05-07T14:44:54;9.67;;;6.20;;
28756;SDS011;44294;48.282;14.282;2023-05-07T14:47:41;9.10;;;6.20;;
28756;SDS011;44294;48.282;14.282;2023-05-07T14:50:28;7.80;;;6.43;;
28756;SDS011;44294;48.282;14.282;2023-05-07T14:53:15;8.70;;;5.93;;
28756;SDS011;44294;48.282;14.282;2023-05-07T14:56:03;7.17;;;5.87;;
28756;SDS011;44294;48.282;14.282;2023-05-07T14:58:50;8.80;;;5.90;;
28756;SDS011;44294;48.282;14.282;2023-05-07T15:01:38;6.67;;;5.60;;
28756;SDS011;44294;48.282;14.282;2023-05-07T15:04:27;6.83;;;5.00;;
28756;SDS011;44294;48.282;14.282;2023-05-07T15:07:14;5.87;;;5.27;;
28756;SDS011;44294;48.282;14.282;2023-05-07T15:10:02;5.50;;;5.00;;
28756;SDS011;44294;48.282;14.282;2023-05-07T15:12:49;6.43;;;5.00;;
28756;SDS011;44294;48.282;14.282;2023-05-07T15:15:37;10.13;;;4.80;;
28756;SDS011;44294;48.282;14.282;2023-05-07T15:18:25;7.77;;;5.07;;
28756;SDS011;44294;48.282;14.282;2023-05-07T15:21:12;6.33;;;5.40;;
28756;SDS011;44294;48.282;14.282;2023-05-07T15:24:00;7.80;;;6.57;;
28756;SDS011;44294;48.282;14.282;2023-05-07T15:26:47;10.00;;;6.40;;
28756;SDS011;44294;48.282;14.282;2023-05-07T15:29:34;7.80;;;6.73;;
28756;SDS011;44294;48.282;14.282;2023-05-07T15:32:22;10.53;;;6.80;;
28756;SDS011;44294;48.282;14.282;2023-05-07T15:35:09;11.47;;;7.13;;
28756;SDS011;44294;48.282;14.282;2023-05-07T15:37:57;8.47;;;6.77;;
28756;SDS011;44294;48.282;14.282;2023-05-07T15:40:44;11.77;;;7.50;;
28756;SDS011;44294;48.282;14.282;2023-05-07T15:43:31;12.70;;;7.50;;
28756;SDS011;44294;48.282;14.282;2023-05-07T15:46:24;14.10;;;7.87;;
28756;SDS011;44294;48.282;14.282;2023-05-07T15:49:09;11.03;;;7.67;;
28756;SDS011;44294;48.282;14.282;2023-05-07T15:51:57;15.23;;;7.93;;
28756;SDS011;44294;48.282;14.282;2023-05-07T15:54:44;10.57;;;7.30;;
28756;SDS011;44294;48.282;14.282;2023-05-07T15:57:31;9.73;;;7.70;;
28756;SDS011;44294;48.282;14.282;2023-05-07T16:00:19;11.00;;;7.53;;
28756;SDS011;44294;48.282;14.282;2023-05-07T16:03:06;10.27;;;7.97;;
28756;SDS011;44294;48.282;14.282;2023-05-07T16:05:54;9.73;;;7.80;;
28756;SDS011;44294;48.282;14.282;2023-05-07T16:08:46;7.73;;;6.80;;
28756;SDS011;44294;48.282;14.282;2023-05-07T16:11:34;12.30;;;8.07;;
28756;SDS011;44294;48.282;14.282;2023-05-07T16:14:39;10.30;;;7.70;;
28756;SDS011;44294;48.282;14.282;2023-05-07T16:17:27;9.93;;;7.53;;
28756;SDS011;44294;48.282;14.282;2023-05-07T16:20:14;11.43;;;8.30;;
28756;SDS011;44294;48.282;14.282;2023-05-07T16:23:03;10.23;;;8.00;;
28756;SDS011;44294;48.282;14.282;2023-05-07T16:25:50;11.53;;;8.27;;
28756;SDS011;44294;48.282;14.282;2023-05-07T16:28:37;11.10;;;7.80;;
28756;SDS011;44294;48.282;14.282;2023-05-07T16:31:25;14.13;;;10.63;;
28756;SDS011;44294;48.282;14.282;2023-05-07T16:34:12;11.20;;;7.90;;
28756;SDS011;44294;48.282;14.282;2023-05-07T16:36:59;11.83;;;8.27;;
28756;SDS011;44294;48.282;14.282;2023-05-07T16:39:47;10.67;;;8.73;;
28756;SDS011;44294;48.282;14.282;2023-05-07T16:42:34;14.40;;;10.43;;
28756;SDS011;44294;48.282;14.282;2023-05-07T16:45:22;12.23;;;8.87;;
28756;SDS011;44294;48.282;14.282;2023-05-07T16:48:09;14.23;;;8.53;;